Latest Weather Observations for Lord Howe Island Windy Point

IDN60801

Issued at 9:03 pm EST Wednesday 5 August 2020 (issued every 10 minutes, with the page automatically refreshed every 10 minutes)

About weather observations | Map of weather stations | Latest weather observations for NSW | Other Formats
Station Details ID: 200715 Name: LORD HOWE ISLAND WINDY POINT Lat: -31.54 Lon: 159.07 Height: 4.0 m
Data from the previous 72 hours. | See also: Recent months at Lord Howe Island Windy Point
Date/Time
EST
Temp
°C
App
Temp
°C
Dew
Point
°C
Rel
Hum
%
Delta-T
°C
Wind Press
QNH
hPa
Press
MSL
hPa
Rain since
9am
mm
Dir  Spd
km/h
Gust
km/h
Spd
kts
Gust
kts
05/09:00pm - - - - - SW 26 32 14 17 - - -
05/08:30pm - - - - - WSW 32 41 17 22 - - -
05/08:00pm - - - - - WSW 24 30 13 16 - - -
05/07:30pm - - - - - WSW 33 41 18 22 - - -
05/07:00pm - - - - - WSW 28 32 15 17 - - -
05/06:30pm - - - - - WSW 30 32 16 17 - - -
05/06:00pm - - - - - W 28 33 15 18 - - -
05/05:30pm - - - - - WSW 22 26 12 14 - - -
05/05:00pm - - - - - SW 9 13 5 7 - - -
05/04:30pm - - - - - SW 13 15 7 8 - - -
05/04:00pm - - - - - W 13 17 7 9 - - -
05/03:30pm - - - - - SW 9 11 5 6 - - -
05/03:00pm - - - - - WSW 11 19 6 10 - - -
05/02:30pm - - - - - SSW 19 26 10 14 - - -
05/02:00pm - - - - - SW 35 46 19 25 - - -
05/01:47pm - - - - - W 35 54 19 29 - - -
05/01:45pm - - - - - WNW 33 54 18 29 - - -
05/01:43pm - - - - - WNW 30 50 16 27 - - -
05/01:30pm - - - - - NW 28 37 15 20 - - -
05/01:00pm - - - - - NW 30 39 16 21 - - -
05/12:30pm - - - - - NW 24 33 13 18 - - -
05/12:00pm - - - - - NW 24 32 13 17 - - -
05/11:30am - - - - - NW 24 30 13 16 - - -
05/11:00am - - - - - NW 22 35 12 19 - - -
05/10:30am - - - - - NW 24 30 13 16 - - -
05/10:00am - - - - - NW 22 28 12 15 - - -
05/09:30am - - - - - NW 24 30 13 16 - - -
05/09:00am - - - - - NW 20 30 11 16 - - -
05/08:30am - - - - - WNW 24 32 13 17 - - -
05/08:00am - - - - - WNW 24 30 13 16 - - -
05/07:30am - - - - - NW 22 28 12 15 - - -
05/07:00am - - - - - NW 22 32 12 17 - - -
05/06:30am - - - - - NW 17 24 9 13 - - -
05/06:00am - - - - - NW 19 24 10 13 - - -
05/05:30am - - - - - NW 19 24 10 13 - - -
05/05:00am - - - - - NW 17 22 9 12 - - -
05/04:30am - - - - - NW 15 24 8 13 - - -
05/04:00am - - - - - NW 15 20 8 11 - - -
05/03:30am - - - - - NW 17 22 9 12 - - -
05/03:00am - - - - - NW 17 24 9 13 - - -
05/02:30am - - - - - NW 20 28 11 15 - - -
05/02:00am - - - - - NW 17 22 9 12 - - -
05/01:30am - - - - - NW 13 22 7 12 - - -
05/01:00am - - - - - NW 15 22 8 12 - - -
05/12:30am - - - - - NW 17 24 9 13 - - -
05/12:00am - - - - - NW 20 28 11 15 - - -
 
Date/Time
EST
Temp
°C
App
Temp
°C
Dew
Point
°C
Rel
Hum
%
Delta-T
°C
Wind Press
QNH
hPa
Press
MSL
hPa
Rain since
9am
mm
Dir  Spd
km/h
Gust
km/h
Spd
kts
Gust
kts
04/11:30pm - - - - - NW 19 26 10 14 - - -
04/11:00pm - - - - - NNW 13 24 7 13 - - -
04/10:30pm - - - - - NNW 15 24 8 13 - - -
04/10:00pm - - - - - NW 13 20 7 11 - - -
04/09:30pm - - - - - NW 15 20 8 11 - - -
04/09:00pm - - - - - NNW 9 15 5 8 - - -
04/08:30pm - - - - - NNW 11 15 6 8 - - -
04/08:00pm - - - - - NNW 11 17 6 9 - - -
04/07:30pm - - - - - NW 15 20 8 11 - - -
04/07:00pm - - - - - NW 19 24 10 13 - - -
04/06:30pm - - - - - NW 15 24 8 13 - - -
04/06:00pm - - - - - NNE 6 15 3 8 - - -
04/05:30pm - - - - - NE 9 15 5 8 - - -
04/05:00pm - - - - - NNE 9 20 5 11 - - -
04/04:30pm - - - - - NNE 9 19 5 10 - - -
04/04:00pm - - - - - N 9 15 5 8 - - -
04/03:30pm - - - - - NNE 13 17 7 9 - - -
04/03:00pm - - - - - NNE 11 19 6 10 - - -
04/02:30pm - - - - - NNE 13 19 7 10 - - -
04/02:00pm - - - - - N 13 19 7 10 - - -
04/01:30pm - - - - - NNE 15 20 8 11 - - -
04/01:00pm - - - - - N 15 22 8 12 - - -
04/12:30pm - - - - - NW 15 22 8 12 - - -
04/12:00pm - - - - - NW 17 30 9 16 - - -
04/11:30am - - - - - WNW 13 20 7 11 - - -
04/11:00am - - - - - W 9 13 5 7 - - -
04/10:30am - - - - - NW 15 20 8 11 - - -
04/10:00am - - - - - NW 26 35 14 19 - - -
04/09:30am - - - - - WNW 20 28 11 15 - - -
04/09:00am - - - - - WNW 17 22 9 12 - - -
04/08:30am - - - - - W 19 26 10 14 - - -
04/08:00am - - - - - NNW 9 13 5 7 - - -
04/07:30am - - - - - N 7 11 4 6 - - -
04/07:00am - - - - - N 6 7 3 4 - - -
04/06:30am - - - - - NNE 6 7 3 4 - - -
04/06:00am - - - - - NNW 9 15 5 8 - - -
04/05:30am - - - - - NNE 7 11 4 6 - - -
04/05:00am - - - - - NNE 9 13 5 7 - - -
04/04:30am - - - - - NNE 7 9 4 5 - - -
04/04:00am - - - - - N 7 11 4 6 - - -
04/03:30am - - - - - NNE 7 13 4 7 - - -
04/03:00am - - - - - N 7 11 4 6 - - -
04/02:30am - - - - - NNE 2 7 1 4 - - -
04/02:00am - - - - - CALM 0 0 0 0 - - -
04/01:30am - - - - - CALM 0 0 0 0 - - -
04/01:00am - - - - - CALM 0 0 0 0 - - -
04/12:30am - - - - - NE 7 11 4 6 - - -
04/12:00am - - - - - NE 7 9 4 5 - - -
 
Date/Time
EST
Temp
°C
App
Temp
°C
Dew
Point
°C
Rel
Hum
%
Delta-T
°C
Wind Press
QNH
hPa
Press
MSL
hPa
Rain since
9am
mm
Dir  Spd
km/h
Gust
km/h
Spd
kts
Gust
kts
03/11:30pm - - - - - E 7 13 4 7 - - -
03/11:00pm - - - - - CALM 0 0 0 0 - - -
03/10:30pm - - - - - ESE 6 7 3 4 - - -
03/10:00pm - - - - - E 2 7 1 4 - - -
03/09:30pm - - - - - ESE 6 9 3 5 - - -
03/09:00pm - - - - - ESE 7 9 4 5 - - -
03/08:30pm - - - - - ESE 7 11 4 6 - - -
03/08:00pm - - - - - ESE 9 13 5 7 - - -
03/07:30pm - - - - - ESE 9 13 5 7 - - -
03/07:00pm - - - - - ESE 9 11 5 6 - - -
03/06:30pm - - - - - ESE 9 13 5 7 - - -
03/06:00pm - - - - - ESE 7 11 4 6 - - -
03/05:30pm - - - - - ESE 9 13 5 7 - - -
03/05:00pm - - - - - E 7 9 4 5 - - -
03/04:30pm - - - - - ESE 9 11 5 6 - - -
03/04:00pm - - - - - E 9 13 5 7 - - -
03/03:30pm - - - - - ESE 11 15 6 8 - - -
03/03:00pm - - - - - SW 15 17 8 9 - - -
03/02:30pm - - - - - SSW 7 13 4 7 - - -
03/02:00pm - - - - - E 17 26 9 14 - - -
03/01:30pm - - - - - S 9 20 5 11 - - -
03/01:00pm - - - - - E 19 26 10 14 - - -
03/12:30pm - - - - - E 20 24 11 13 - - -
03/12:00pm - - - - - E 24 30 13 16 - - -
03/11:30am - - - - - E 17 22 9 12 - - -
03/11:00am - - - - - SSE 7 11 4 6 - - -
03/10:30am - - - - - NE 9 20 5 11 - - -
03/10:00am - - - - - SSE 6 13 3 7 - - -
03/09:30am - - - - - ESE 9 19 5 10 - - -
03/09:00am - - - - - SE 11 17 6 9 - - -
03/08:30am - - - - - SE 9 13 5 7 - - -
03/08:00am - - - - - SSE 11 20 6 11 - - -
03/07:30am - - - - - SSW 11 20 6 11 - - -
03/07:00am - - - - - SSE 7 13 4 7 - - -
03/06:30am - - - - - SSE 6 11 3 6 - - -
03/06:00am - - - - - SE 17 24 9 13 - - -
03/05:30am - - - - - ESE 17 22 9 12 - - -
03/05:00am - - - - - SSW 22 37 12 20 - - -
03/04:30am - - - - - SSW 17 33 9 18 - - -
03/04:00am - - - - - S 13 24 7 13 - - -
03/03:30am - - - - - S 11 17 6 9 - - -
03/03:00am - - - - - SSW 11 22 6 12 - - -
03/02:30am - - - - - SW 17 26 9 14 - - -
03/02:00am - - - - - SSE 13 26 7 14 - - -
03/01:30am - - - - - SSW 9 24 5 13 - - -
03/01:00am - - - - - ESE 13 26 7 14 - - -
03/12:30am - - - - - SSE 11 28 6 15 - - -
03/12:00am - - - - - ENE 9 13 5 7 - - -
 
Date/Time
EST
Temp
°C
App
Temp
°C
Dew
Point
°C
Rel
Hum
%
Delta-T
°C
Wind Press
QNH
hPa
Press
MSL
hPa
Rain since
9am
mm
Dir  Spd
km/h
Gust
km/h
Spd
kts
Gust
kts
02/11:30pm - - - - - W 15 33 8 18 - - -
02/11:00pm - - - - - SSW 15 39 8 21 - - -
02/10:30pm - - - - - S 17 28 9 15 - - -
02/10:00pm - - - - - S 22 35 12 19 - - -
02/09:30pm - - - - - SSE 13 33 7 18 - - -

Other formats

Comma delimited format used in spreadsheet applications
http://www.bom.gov.au/fwo/IDN60801/IDN60801.95995.axf

JavaScript Object Notation format (JSON) in row-major order
http://www.bom.gov.au/fwo/IDN60801/IDN60801.95995.json

Data quality

Most of these data are generated automatically and are frequently updated. Quality checks on data are not normally performed. It is possible for incorrect values to appear. Refer to information at About Latest Weather Observations and please check the disclaimer before using these data.